createdAt,value
2023-03-19T00:00:43.933Z,8.90
2023-03-19T00:03:10.972Z,8.80
2023-03-19T00:05:37.964Z,8.60
2023-03-19T00:08:05.515Z,8.50
2023-03-19T00:10:32.352Z,8.40
2023-03-19T00:12:59.186Z,8.30
2023-03-19T00:15:26.000Z,8.20
2023-03-19T00:17:54.240Z,8.10
2023-03-19T00:20:22.143Z,8.10
2023-03-19T00:22:48.992Z,8.00
2023-03-19T00:25:15.894Z,8.00
2023-03-19T00:27:43.863Z,8.10
2023-03-19T00:30:11.584Z,8.20
2023-03-19T00:32:39.404Z,8.20
2023-03-19T00:35:08.224Z,8.10
2023-03-19T00:37:36.288Z,8.00
2023-03-19T00:40:04.436Z,7.90
2023-03-19T00:42:31.883Z,7.80
2023-03-19T00:44:58.846Z,7.60
2023-03-19T00:47:26.974Z,7.50
2023-03-19T00:49:53.910Z,7.40
2023-03-19T00:52:20.775Z,7.30
2023-03-19T00:54:47.589Z,7.30
2023-03-19T00:57:14.435Z,7.20
2023-03-19T00:59:41.257Z,7.20
2023-03-19T01:02:08.222Z,7.20
2023-03-19T01:04:35.403Z,7.20
2023-03-19T01:07:02.276Z,7.00
2023-03-19T01:09:29.075Z,6.90
2023-03-19T01:11:55.880Z,6.90
2023-03-19T01:14:23.027Z,7.00
2023-03-19T01:16:49.910Z,6.90
2023-03-19T01:19:16.802Z,6.90
2023-03-19T01:21:46.360Z,6.90
2023-03-19T01:24:13.666Z,6.80
2023-03-19T01:26:40.590Z,6.80
2023-03-19T01:29:08.124Z,6.70
2023-03-19T01:31:36.349Z,6.60
2023-03-19T01:34:03.985Z,6.50
2023-03-19T01:36:31.457Z,6.30
2023-03-19T01:38:58.248Z,6.30
2023-03-19T01:41:25.091Z,6.30
2023-03-19T01:43:51.927Z,6.30
2023-03-19T01:46:33.394Z,6.20
2023-03-19T01:49:07.261Z,6.20
2023-03-19T01:51:45.996Z,6.10
2023-03-19T01:54:18.394Z,5.90
2023-03-19T01:56:50.413Z,6.00
2023-03-19T01:59:31.851Z,5.90
2023-03-19T02:02:00.836Z,5.90
2023-03-19T02:04:31.631Z,5.90
2023-03-19T02:07:01.206Z,5.90
2023-03-19T02:09:29.348Z,5.90
2023-03-19T02:11:57.681Z,5.90
2023-03-19T02:14:24.894Z,5.80
2023-03-19T02:16:52.729Z,5.80
2023-03-19T02:19:42.205Z,5.70
2023-03-19T02:22:11.797Z,5.70
2023-03-19T02:25:01.792Z,5.70
2023-03-19T02:27:28.629Z,5.80
2023-03-19T02:29:55.431Z,5.80
2023-03-19T02:32:22.294Z,5.80
2023-03-19T02:34:49.295Z,5.90
2023-03-19T02:37:32.004Z,6.00
2023-03-19T02:40:16.646Z,5.90
2023-03-19T02:42:43.407Z,5.90
2023-03-19T02:45:11.533Z,6.00
2023-03-19T02:47:38.286Z,6.10
2023-03-19T02:50:06.297Z,6.10
2023-03-19T02:52:33.281Z,6.10
2023-03-19T02:55:00.205Z,6.20
2023-03-19T02:57:27.089Z,6.20
2023-03-19T02:59:53.886Z,6.20
2023-03-19T03:02:20.831Z,6.30
2023-03-19T03:04:48.808Z,6.30
2023-03-19T03:07:15.608Z,6.30
2023-03-19T03:09:42.441Z,6.30
2023-03-19T03:12:09.584Z,6.30
2023-03-19T03:14:36.421Z,6.30
2023-03-19T03:17:03.249Z,6.20
2023-03-19T03:19:30.068Z,6.10
2023-03-19T03:21:56.879Z,6.10
2023-03-19T03:24:24.226Z,6.00
2023-03-19T03:26:51.019Z,5.90
2023-03-19T03:29:18.131Z,5.80
2023-03-19T03:31:45.032Z,5.70
2023-03-19T03:34:11.984Z,5.50
2023-03-19T03:36:38.882Z,5.40
2023-03-19T03:39:05.748Z,5.30
2023-03-19T03:41:33.130Z,5.30
2023-03-19T03:43:59.936Z,5.30
2023-03-19T03:46:26.758Z,5.20
2023-03-19T03:48:53.570Z,5.20
2023-03-19T03:51:20.592Z,5.00
2023-03-19T03:53:47.469Z,5.10
2023-03-19T03:56:14.553Z,5.10
2023-03-19T03:58:41.655Z,5.20
2023-03-19T04:01:11.822Z,5.20
2023-03-19T04:03:38.638Z,5.30
2023-03-19T04:06:06.039Z,5.40
2023-03-19T04:08:32.890Z,5.40
2023-03-19T04:10:59.745Z,5.30
2023-03-19T04:13:27.598Z,5.30
2023-03-19T04:15:56.037Z,5.30
2023-03-19T04:18:22.848Z,5.30
2023-03-19T04:20:49.593Z,5.30
2023-03-19T04:23:16.752Z,5.30
2023-03-19T04:25:43.525Z,5.30
2023-03-19T04:28:10.430Z,5.40
2023-03-19T04:30:37.851Z,5.30
2023-03-19T04:33:05.077Z,5.50
2023-03-19T04:35:31.925Z,5.50
2023-03-19T04:37:58.750Z,5.60
2023-03-19T04:40:25.525Z,5.60
2023-03-19T04:42:52.357Z,5.70
2023-03-19T04:45:19.306Z,5.70
2023-03-19T04:47:46.113Z,5.70
2023-03-19T04:50:13.926Z,5.70
2023-03-19T04:52:40.737Z,5.70
2023-03-19T04:55:08.890Z,5.70
2023-03-19T04:57:35.694Z,5.60
2023-03-19T05:00:02.530Z,5.60
2023-03-19T05:02:29.297Z,5.60
2023-03-19T05:04:56.291Z,5.70
2023-03-19T05:07:23.055Z,5.80
2023-03-19T05:09:50.065Z,5.90
2023-03-19T05:12:17.005Z,5.90
2023-03-19T05:14:43.873Z,5.90
2023-03-19T05:17:11.299Z,5.80
2023-03-19T05:19:39.414Z,5.80
2023-03-19T05:22:06.382Z,5.70
2023-03-19T05:24:33.216Z,5.20
2023-03-19T05:27:00.098Z,5.00
2023-03-19T05:29:27.090Z,4.90
2023-03-19T05:31:54.181Z,4.70
2023-03-19T05:34:21.428Z,4.90
2023-03-19T05:36:48.373Z,5.00
2023-03-19T05:39:15.256Z,5.20
2023-03-19T05:41:42.040Z,5.10
2023-03-19T05:44:09.113Z,5.20
2023-03-19T05:46:36.364Z,5.30
2023-03-19T05:49:04.368Z,5.30
2023-03-19T05:51:31.493Z,5.40
2023-03-19T05:53:58.303Z,5.60
2023-03-19T05:56:25.270Z,5.60
2023-03-19T05:58:52.084Z,5.70
2023-03-19T06:01:18.971Z,5.80
2023-03-19T06:03:45.941Z,5.90
2023-03-19T06:06:12.781Z,5.90
2023-03-19T06:08:39.717Z,5.80
2023-03-19T06:11:06.811Z,5.90
2023-03-19T06:13:33.612Z,6.00
2023-03-19T06:16:01.245Z,5.90
2023-03-19T06:18:28.135Z,6.00
2023-03-19T06:20:54.962Z,6.10
2023-03-19T06:23:21.780Z,6.20
2023-03-19T06:25:48.666Z,6.20
2023-03-19T06:28:15.572Z,6.20
2023-03-19T06:30:42.456Z,6.30
2023-03-19T06:33:09.264Z,6.40
2023-03-19T06:35:36.411Z,6.30
2023-03-19T06:38:03.254Z,6.50
2023-03-19T06:40:30.083Z,6.60
2023-03-19T06:42:57.013Z,6.70
2023-03-19T06:45:23.801Z,6.90
2023-03-19T06:47:53.488Z,7.20
2023-03-19T06:50:20.545Z,7.40
2023-03-19T06:52:47.392Z,7.50
2023-03-19T06:55:14.414Z,7.60
2023-03-19T06:57:41.413Z,7.80
2023-03-19T07:00:11.469Z,8.00
2023-03-19T07:02:38.274Z,8.20
2023-03-19T07:05:05.787Z,8.50
2023-03-19T07:07:32.670Z,8.70
2023-03-19T07:09:59.533Z,8.90
2023-03-19T07:12:27.861Z,9.10
2023-03-19T07:14:58.644Z,9.10
2023-03-19T07:17:26.811Z,9.00
2023-03-19T07:19:53.666Z,9.10
2023-03-19T07:22:20.503Z,9.10
2023-03-19T07:24:47.387Z,9.20
2023-03-19T07:27:14.230Z,9.20
2023-03-19T07:29:41.067Z,9.40
2023-03-19T07:32:10.383Z,9.70
2023-03-19T07:34:37.196Z,9.80
2023-03-19T07:37:04.052Z,10.00
2023-03-19T07:39:31.010Z,10.10
2023-03-19T07:41:57.957Z,10.30
2023-03-19T07:44:24.724Z,10.60
2023-03-19T07:46:51.516Z,10.70
2023-03-19T07:49:18.293Z,10.80
2023-03-19T07:51:45.176Z,11.20
2023-03-19T07:54:11.989Z,11.20
2023-03-19T07:56:38.810Z,11.40
2023-03-19T07:59:05.847Z,11.50
2023-03-19T08:01:32.780Z,11.60
2023-03-19T08:03:59.629Z,11.70
2023-03-19T08:06:26.610Z,11.80
2023-03-19T08:08:53.425Z,11.80
2023-03-19T08:11:20.261Z,11.90
2023-03-19T08:13:47.087Z,12.00
2023-03-19T08:16:14.009Z,12.00
2023-03-19T08:18:40.984Z,12.20
2023-03-19T08:21:07.983Z,12.40
2023-03-19T08:23:35.532Z,12.50
2023-03-19T08:26:02.361Z,12.50
2023-03-19T08:28:29.189Z,12.50
2023-03-19T08:30:56.530Z,12.50
2023-03-19T08:33:23.485Z,12.60
2023-03-19T08:35:50.480Z,12.70
2023-03-19T08:38:17.381Z,12.70
2023-03-19T08:40:44.194Z,12.80
2023-03-19T08:43:11.133Z,12.70
2023-03-19T08:45:37.978Z,12.70
2023-03-19T08:48:04.787Z,12.60
2023-03-19T08:50:32.335Z,12.60
2023-03-19T08:52:59.383Z,12.60
2023-03-19T08:55:26.171Z,12.70
2023-03-19T08:57:52.956Z,12.90
2023-03-19T09:00:20.139Z,13.20
2023-03-19T09:02:47.072Z,13.40
2023-03-19T09:05:13.851Z,13.30
2023-03-19T09:07:40.667Z,13.10
2023-03-19T09:10:08.112Z,13.40
2023-03-19T09:12:34.948Z,13.40
2023-03-19T09:15:01.742Z,13.60
2023-03-19T09:17:28.648Z,13.60
2023-03-19T09:19:55.595Z,13.60
2023-03-19T09:22:22.423Z,13.50
2023-03-19T09:24:49.260Z,13.80
2023-03-19T09:27:16.127Z,13.80
2023-03-19T09:29:42.953Z,13.80
2023-03-19T09:32:09.894Z,13.40
2023-03-19T09:34:36.722Z,13.30
2023-03-19T09:37:03.532Z,13.40
2023-03-19T09:39:30.353Z,13.40
2023-03-19T09:42:16.075Z,13.30
2023-03-19T09:44:45.644Z,13.40
2023-03-19T09:47:29.709Z,13.40
2023-03-19T09:50:05.191Z,13.10
2023-03-19T09:52:50.369Z,13.00
2023-03-19T09:55:40.607Z,13.10
2023-03-19T09:58:16.319Z,13.30
2023-03-19T10:00:44.643Z,13.30
2023-03-19T10:03:35.613Z,13.20
2023-03-19T10:06:05.613Z,13.40
2023-03-19T10:09:18.501Z,13.70
2023-03-19T10:12:01.218Z,13.90
2023-03-19T10:15:14.918Z,13.80
2023-03-19T10:18:05.597Z,13.90
2023-03-19T10:20:41.214Z,14.00
2023-03-19T10:23:20.084Z,13.90
2023-03-19T10:25:47.434Z,14.00
2023-03-19T10:28:17.360Z,14.20
2023-03-19T10:30:58.295Z,14.40
2023-03-19T10:33:34.874Z,14.10
2023-03-19T10:36:06.982Z,14.00
2023-03-19T10:38:41.292Z,14.00
2023-03-19T10:41:41.348Z,14.00
2023-03-19T10:44:19.940Z,13.80
2023-03-19T10:46:47.244Z,13.40
2023-03-19T10:49:15.720Z,13.60
2023-03-19T10:51:49.002Z,13.70
2023-03-19T10:54:27.026Z,13.90
2023-03-19T10:57:00.433Z,14.10
2023-03-19T10:59:29.931Z,14.40
2023-03-19T11:02:16.182Z,14.10
2023-03-19T11:04:42.948Z,14.00
2023-03-19T11:07:18.186Z,14.10
2023-03-19T11:09:48.993Z,14.10
2023-03-19T11:12:24.499Z,14.00
2023-03-19T11:14:57.414Z,13.90
2023-03-19T11:17:38.429Z,13.50
2023-03-19T11:20:27.351Z,13.60
2023-03-19T11:22:57.414Z,13.60
2023-03-19T11:25:31.967Z,13.70
2023-03-19T11:28:14.649Z,14.00
2023-03-19T11:31:19.970Z,14.20
2023-03-19T11:34:01.906Z,14.40
2023-03-19T11:37:05.616Z,14.60
2023-03-19T11:40:10.650Z,14.90
2023-03-19T11:42:43.713Z,14.70
2023-03-19T11:45:35.492Z,14.40
2023-03-19T11:48:12.442Z,14.70
2023-03-19T11:50:51.813Z,14.80
2023-03-19T11:53:38.289Z,14.70
2023-03-19T11:56:33.402Z,14.90
2023-03-19T11:59:55.052Z,14.80
2023-03-19T12:02:41.867Z,15.00
2023-03-19T12:06:11.791Z,15.30
2023-03-19T12:09:04.009Z,15.40
2023-03-19T12:11:43.610Z,15.40
2023-03-19T12:14:37.180Z,15.00
2023-03-19T12:17:36.307Z,14.90
2023-03-19T12:20:31.324Z,14.70
2023-03-19T12:23:26.549Z,14.30
2023-03-19T12:26:05.027Z,14.50
2023-03-19T12:28:36.140Z,14.70
2023-03-19T12:31:27.918Z,14.80
2023-03-19T12:34:29.662Z,14.80
2023-03-19T12:37:32.417Z,14.60
2023-03-19T12:40:20.021Z,14.60
2023-03-19T12:42:46.851Z,14.90
2023-03-19T12:45:26.424Z,15.20
2023-03-19T12:48:08.454Z,15.50
2023-03-19T12:50:39.930Z,15.90
2023-03-19T12:53:26.702Z,15.80
2023-03-19T12:56:00.336Z,15.50
2023-03-19T12:58:46.562Z,15.80
2023-03-19T13:01:27.806Z,15.20
2023-03-19T13:04:19.299Z,14.40
2023-03-19T13:06:59.183Z,14.50
2023-03-19T13:09:40.804Z,14.20
2023-03-19T13:12:18.773Z,14.40
2023-03-19T13:15:25.883Z,14.70
2023-03-19T13:18:08.966Z,15.00
2023-03-19T13:20:49.161Z,15.10
2023-03-19T13:23:26.388Z,15.20
2023-03-19T13:25:57.681Z,15.10
2023-03-19T13:28:31.703Z,15.10
2023-03-19T13:31:02.465Z,15.00
2023-03-19T13:33:30.074Z,14.80
2023-03-19T13:35:57.693Z,14.40
2023-03-19T13:38:47.095Z,14.10
2023-03-19T13:41:35.406Z,14.10
2023-03-19T13:45:03.694Z,14.10
2023-03-19T13:47:33.456Z,14.10
2023-03-19T13:50:21.065Z,14.10
2023-03-19T13:52:52.491Z,14.10
2023-03-19T13:55:24.992Z,14.10
2023-03-19T13:58:17.813Z,14.20
2023-03-19T14:00:45.072Z,14.20
2023-03-19T14:03:32.165Z,14.20
2023-03-19T14:06:00.443Z,14.40
2023-03-19T14:08:47.646Z,14.50
2023-03-19T14:11:30.047Z,14.70
2023-03-19T14:14:03.313Z,14.90
2023-03-19T14:16:42.592Z,15.00
2023-03-19T14:19:17.973Z,15.20
2023-03-19T14:21:59.894Z,15.40
2023-03-19T14:25:19.319Z,15.50
2023-03-19T14:27:52.549Z,15.90
2023-03-19T14:30:40.632Z,16.50
2023-03-19T14:33:20.951Z,17.00
2023-03-19T14:35:49.930Z,17.90
2023-03-19T14:38:36.962Z,18.80
2023-03-19T14:41:06.368Z,19.80
2023-03-19T14:43:58.222Z,21.20
2023-03-19T14:47:03.086Z,21.50
2023-03-19T14:50:01.331Z,20.70
2023-03-19T14:52:44.122Z,21.50
2023-03-19T14:55:15.561Z,22.50
2023-03-19T14:57:43.383Z,22.00
2023-03-19T15:00:20.518Z,21.50
2023-03-19T15:02:52.057Z,22.80
2023-03-19T15:05:36.782Z,23.50
2023-03-19T15:08:07.559Z,24.50
2023-03-19T15:11:13.370Z,25.30
2023-03-19T15:14:14.596Z,23.50
2023-03-19T15:17:12.041Z,23.10
2023-03-19T15:19:40.258Z,23.40
2023-03-19T15:22:15.926Z,23.90
2023-03-19T15:24:43.181Z,24.90
2023-03-19T15:27:25.974Z,26.50
2023-03-19T15:29:53.935Z,27.00
2023-03-19T15:32:54.158Z,26.20
2023-03-19T15:35:31.645Z,25.70
2023-03-19T15:38:03.496Z,24.70
2023-03-19T15:40:32.783Z,23.50
2023-03-19T15:43:04.720Z,22.30
2023-03-19T15:45:36.258Z,21.30
2023-03-19T15:48:21.562Z,19.90
2023-03-19T15:50:52.997Z,18.80
2023-03-19T15:53:25.242Z,18.40
2023-03-19T15:55:54.135Z,18.10
2023-03-19T15:58:31.080Z,17.70
2023-03-19T16:01:01.083Z,17.60
2023-03-19T16:03:38.238Z,17.50
2023-03-19T16:06:29.690Z,17.20
2023-03-19T16:09:19.509Z,16.90
2023-03-19T16:11:47.057Z,16.70
2023-03-19T16:14:39.614Z,16.60
2023-03-19T16:17:17.948Z,16.50
2023-03-19T16:19:56.362Z,16.30
2023-03-19T16:22:28.718Z,16.20
2023-03-19T16:24:56.136Z,15.90
2023-03-19T16:27:40.233Z,15.80
2023-03-19T16:30:22.408Z,15.60
2023-03-19T16:33:06.621Z,15.60
2023-03-19T16:35:35.037Z,15.20
2023-03-19T16:38:22.135Z,15.00
2023-03-19T16:41:10.788Z,14.80
2023-03-19T16:43:44.154Z,14.70
2023-03-19T16:46:13.326Z,14.60
2023-03-19T16:48:40.203Z,14.60
2023-03-19T16:51:20.109Z,14.50
2023-03-19T16:53:48.709Z,14.30
2023-03-19T16:56:16.438Z,14.10
2023-03-19T16:58:45.102Z,14.00
2023-03-19T17:01:20.515Z,13.80
2023-03-19T17:03:48.740Z,13.60
2023-03-19T17:06:17.089Z,13.50
2023-03-19T17:08:44.945Z,13.40
2023-03-19T17:11:36.809Z,13.30
2023-03-19T17:14:06.218Z,13.20
2023-03-19T17:16:33.815Z,13.10
2023-03-19T17:19:00.718Z,13.00
2023-03-19T17:21:33.245Z,12.80
2023-03-19T17:24:20.766Z,12.50
2023-03-19T17:26:47.715Z,12.30
2023-03-19T17:29:14.525Z,12.10
2023-03-19T17:31:41.370Z,12.10
2023-03-19T17:34:20.989Z,12.00
2023-03-19T17:36:55.942Z,11.90
2023-03-19T17:39:24.349Z,11.70
2023-03-19T17:41:52.117Z,11.70
2023-03-19T17:44:18.914Z,11.70
2023-03-19T17:46:54.186Z,11.70
2023-03-19T17:49:22.637Z,11.60
2023-03-19T17:51:50.769Z,11.50
2023-03-19T17:54:18.578Z,11.30
2023-03-19T17:56:45.390Z,11.20
2023-03-19T17:59:12.836Z,11.00
2023-03-19T18:01:45.035Z,10.90
2023-03-19T18:04:16.392Z,10.80
2023-03-19T18:06:55.444Z,10.70
2023-03-19T18:09:28.141Z,10.60
2023-03-19T18:11:55.467Z,10.60
2023-03-19T18:14:22.276Z,10.60
2023-03-19T18:16:49.449Z,10.50
2023-03-19T18:19:27.512Z,10.40
2023-03-19T18:21:54.266Z,10.50
2023-03-19T18:24:21.082Z,10.50
2023-03-19T18:26:48.017Z,10.40
2023-03-19T18:29:16.252Z,10.50
2023-03-19T18:31:49.121Z,10.50
2023-03-19T18:34:17.155Z,10.40
2023-03-19T18:36:44.186Z,10.20
2023-03-19T18:39:16.140Z,10.20
2023-03-19T18:41:43.737Z,10.20
2023-03-19T18:44:12.095Z,10.20
2023-03-19T18:46:40.507Z,10.20
2023-03-19T18:49:27.222Z,10.30
2023-03-19T18:52:02.504Z,10.30
2023-03-19T18:54:31.347Z,10.30
2023-03-19T18:57:00.230Z,10.40
2023-03-19T18:59:30.943Z,10.30
2023-03-19T19:02:18.016Z,10.40
2023-03-19T19:04:44.933Z,10.30
2023-03-19T19:07:14.984Z,10.40
2023-03-19T19:09:42.222Z,10.40
2023-03-19T19:12:13.440Z,10.40
2023-03-19T19:14:40.832Z,10.40
2023-03-19T19:17:17.087Z,10.30
2023-03-19T19:19:44.070Z,10.20
2023-03-19T19:22:16.850Z,10.20
2023-03-19T19:24:44.574Z,10.20
2023-03-19T19:27:26.751Z,10.20
2023-03-19T19:29:54.017Z,10.20
2023-03-19T19:32:26.166Z,10.30
2023-03-19T19:34:53.448Z,10.30
2023-03-19T19:37:23.090Z,10.30
2023-03-19T19:39:51.155Z,10.30
2023-03-19T19:42:21.456Z,10.40
2023-03-19T19:44:55.570Z,10.40
2023-03-19T19:47:22.767Z,10.50
2023-03-19T19:49:49.609Z,10.50
2023-03-19T19:52:19.088Z,10.50
2023-03-19T19:54:46.768Z,10.50
2023-03-19T19:57:22.355Z,10.50
2023-03-19T19:59:50.888Z,10.50
2023-03-19T20:02:29.309Z,10.50
2023-03-19T20:04:57.882Z,10.60
2023-03-19T20:07:24.726Z,10.60
2023-03-19T20:09:51.580Z,10.70
2023-03-19T20:12:21.122Z,10.70
2023-03-19T20:14:48.819Z,10.80
2023-03-19T20:17:21.160Z,10.80
2023-03-19T20:19:48.387Z,10.90
2023-03-19T20:22:15.305Z,11.00
2023-03-19T20:24:42.357Z,11.00
2023-03-19T20:27:19.285Z,11.00
2023-03-19T20:29:46.234Z,11.10
2023-03-19T20:32:38.306Z,11.00
2023-03-19T20:35:18.467Z,11.00
2023-03-19T20:37:45.400Z,11.00
2023-03-19T20:40:13.776Z,10.90
2023-03-19T20:42:41.440Z,11.00
2023-03-19T20:45:22.812Z,10.90
2023-03-19T20:47:54.704Z,10.90
2023-03-19T20:50:28.633Z,10.90
2023-03-19T20:53:03.520Z,10.80
2023-03-19T20:55:34.190Z,10.80
2023-03-19T20:58:03.728Z,10.80
2023-03-19T21:00:33.369Z,10.80
2023-03-19T21:03:01.843Z,10.90
2023-03-19T21:05:36.461Z,10.90
2023-03-19T21:08:06.545Z,10.90
2023-03-19T21:10:43.086Z,10.80
2023-03-19T21:13:16.629Z,10.60
2023-03-19T21:15:49.596Z,10.60
2023-03-19T21:18:17.034Z,10.50
2023-03-19T21:20:47.981Z,10.60
2023-03-19T21:23:34.682Z,10.50
2023-03-19T21:26:23.711Z,10.50
2023-03-19T21:29:05.465Z,10.50
2023-03-19T21:31:33.335Z,10.50
2023-03-19T21:34:01.162Z,10.50
2023-03-19T21:36:28.958Z,10.40
2023-03-19T21:38:56.256Z,10.50
2023-03-19T21:41:30.038Z,10.40
2023-03-19T21:44:20.012Z,10.20
2023-03-19T21:46:48.223Z,10.20
2023-03-19T21:49:15.798Z,10.30
2023-03-19T21:51:46.837Z,10.30
2023-03-19T21:54:15.597Z,10.00
2023-03-19T21:56:45.395Z,10.10
2023-03-19T21:59:19.419Z,10.10
2023-03-19T22:01:46.589Z,10.10
2023-03-19T22:04:13.421Z,10.20
2023-03-19T22:06:40.338Z,10.20
2023-03-19T22:09:07.694Z,10.20
2023-03-19T22:11:37.873Z,10.30
2023-03-19T22:14:19.742Z,10.40
2023-03-19T22:16:47.752Z,10.30
2023-03-19T22:19:17.733Z,10.40
2023-03-19T22:21:45.499Z,10.40
2023-03-19T22:24:12.310Z,10.40
2023-03-19T22:26:42.058Z,10.40
2023-03-19T22:29:19.934Z,10.30
2023-03-19T22:31:52.391Z,10.40
2023-03-19T22:34:23.215Z,10.40
2023-03-19T22:36:50.410Z,10.30
2023-03-19T22:39:17.637Z,10.30
2023-03-19T22:41:47.781Z,10.20
2023-03-19T22:44:31.323Z,10.20
2023-03-19T22:47:00.647Z,10.00
2023-03-19T22:49:28.278Z,10.00
2023-03-19T22:51:55.972Z,10.10
2023-03-19T22:54:22.823Z,10.10
2023-03-19T22:56:49.681Z,10.10
2023-03-19T22:59:16.522Z,10.10
2023-03-19T23:01:46.712Z,10.10
2023-03-19T23:04:26.639Z,10.10
2023-03-19T23:06:55.493Z,10.10
2023-03-19T23:09:29.379Z,10.10
2023-03-19T23:11:57.745Z,10.10
2023-03-19T23:14:30.080Z,10.10
2023-03-19T23:17:03.313Z,10.00
2023-03-19T23:19:36.715Z,10.10
2023-03-19T23:22:06.889Z,9.90
2023-03-19T23:24:35.133Z,9.90
2023-03-19T23:27:03.438Z,9.90
2023-03-19T23:29:41.183Z,9.80
2023-03-19T23:32:11.373Z,9.90
2023-03-19T23:34:54.005Z,10.00
2023-03-19T23:37:24.312Z,10.00
2023-03-19T23:39:51.116Z,10.00
2023-03-19T23:42:27.691Z,10.00
2023-03-19T23:44:58.577Z,10.00
2023-03-19T23:47:25.724Z,10.10
2023-03-19T23:49:52.610Z,10.10
2023-03-19T23:52:19.417Z,10.00
2023-03-19T23:54:46.616Z,9.90
2023-03-19T23:57:15.627Z,10.00
2023-03-19T23:59:44.823Z,10.00
